Time;durP1;ratioP1;P1;durP2;ratioP2;P2;SDS_P1;SDS_P2;PMS_P1;PMS_P2;Temp;Humidity;BMP_temperature;BMP_pressure;BME280_temperature;BME280_humidity;BME280_pressure;Samples;Min_cycle;Max_cycle;Signal;HPM_P1;HPM_P2
2022/05/01 00:01:18;;;;;;;19.48;9.35;;;;;;;8.48;100.00;102341.22;10181835;28;20046;-63
2022/05/01 00:06:15;;;;;;;16.30;9.30;;;;;;;8.40;100.00;102333.53;10168908;28;20053;-62
2022/05/01 00:11:13;;;;;;;18.25;9.32;;;;;;;8.33;100.00;102332.91;10156004;28;20077;-63
2022/05/01 00:16:11;;;;;;;19.55;8.57;;;;;;;8.22;100.00;102321.97;10170335;28;20053;-62
2022/05/01 00:21:08;;;;;;;17.70;9.15;;;;;;;8.13;100.00;102318.09;10155474;28;20078;-64
2022/05/01 00:26:06;;;;;;;20.50;9.80;;;;;;;8.01;100.00;102320.19;10171332;28;20066;-63
2022/05/01 00:31:05;;;;;;;16.20;9.13;;;;;;;8.00;100.00;102313.06;10154116;28;20137;-62
2022/05/01 00:41:17;;;;;;;14.52;8.55;;;;;;;8.03;100.00;102309.84;10154015;28;20054;-63
2022/05/01 00:46:13;;;;;;;15.57;9.43;;;;;;;8.02;100.00;102309.00;10172530;28;20133;-63
2022/05/01 00:51:10;;;;;;;19.33;8.60;;;;;;;7.91;100.00;102320.91;10153712;28;20088;-63
2022/05/01 00:56:07;;;;;;;13.48;8.57;;;;;;;7.71;100.00;102310.69;10166177;28;20103;-63
2022/05/01 01:01:03;;;;;;;17.38;9.02;;;;;;;7.77;100.00;102315.09;10193301;28;20464;-63
2022/05/01 01:06:00;;;;;;;22.15;9.55;;;;;;;7.72;100.00;102317.75;10165754;28;20552;-62
2022/05/01 01:10:56;;;;;;;20.83;10.88;;;;;;;7.73;100.00;102318.59;10152905;28;20050;-62
2022/05/01 01:15:54;;;;;;;21.55;9.75;;;;;;;7.67;100.00;102320.44;10167125;28;20050;-62
2022/05/01 01:20:54;;;;;;;17.40;9.15;;;;;;;7.60;100.00;102319.84;10169909;28;20137;-62
2022/05/01 01:25:51;;;;;;;24.35;10.27;;;;;;;7.53;100.00;102325.50;10166358;28;20085;-61
2022/05/01 01:36:06;;;;;;;20.73;10.85;;;;;;;7.49;100.00;102329.81;10163431;28;20070;-62
2022/05/01 01:41:09;;;;;;;20.88;10.65;;;;;;;7.46;100.00;102330.31;10151742;28;20153;-62
2022/05/01 01:46:08;;;;;;;16.25;10.55;;;;;;;7.43;100.00;102330.03;10174391;28;20038;-61
2022/05/01 01:51:06;;;;;;;22.95;12.85;;;;;;;7.31;100.00;102336.44;10192077;28;20486;-63
2022/05/01 01:56:04;;;;;;;24.20;10.43;;;;;;;7.16;100.00;102344.44;10180262;28;20135;-63
2022/05/01 02:01:01;;;;;;;18.73;10.60;;;;;;;7.15;100.00;102340.09;10177517;28;20565;-63
2022/05/01 02:05:57;;;;;;;18.08;11.30;;;;;;;7.02;100.00;102335.84;10168906;28;20526;-63
2022/05/01 02:10:55;;;;;;;18.50;10.55;;;;;;;7.15;100.00;102337.38;10150805;28;20104;-63
2022/05/01 02:15:56;;;;;;;21.48;11.60;;;;;;;7.13;100.00;102325.91;10167512;28;20042;-64
2022/05/01 02:26:08;;;;;;;17.52;11.13;;;;;;;7.28;100.00;102328.78;10167169;28;20126;-61
2022/05/01 02:31:04;;;;;;;17.88;10.63;;;;;;;7.18;100.00;102334.13;10190174;28;20077;-61
2022/05/01 02:36:03;;;;;;;22.60;10.95;;;;;;;7.21;100.00;102333.59;10184939;28;20520;-61
2022/05/01 02:41:02;;;;;;;17.55;9.15;;;;;;;7.34;100.00;102338.66;10149518;28;20428;-62
2022/05/01 02:46:03;;;;;;;15.93;9.90;;;;;;;7.21;100.00;102322.72;10168834;28;20510;-61
2022/05/01 02:51:04;;;;;;;13.82;8.57;;;;;;;7.40;100.00;102331.34;10150387;28;20104;-63
2022/05/01 02:56:00;;;;;;;19.42;9.25;;;;;;;7.46;100.00;102340.41;10168024;28;20042;-62
2022/05/01 03:00:57;;;;;;;17.30;9.23;;;;;;;7.48;100.00;102328.16;10197699;28;20583;-61
2022/05/01 03:05:55;;;;;;;16.67;8.43;;;;;;;7.50;100.00;102330.66;10188621;28;20162;-62
2022/05/01 03:10:51;;;;;;;21.85;8.90;;;;;;;7.52;100.00;102312.97;10156929;28;20069;-62
2022/05/01 03:15:48;;;;;;;20.30;9.07;;;;;;;7.62;100.00;102323.13;10170230;28;20101;-61
2022/05/01 03:25:59;;;;;;;17.13;8.45;;;;;;;7.69;100.00;102314.75;10188077;28;20518;-63
2022/05/01 03:30:58;;;;;;;20.65;8.50;;;;;;;7.42;100.00;102314.78;10156943;28;20111;-63
2022/05/01 03:35:55;;;;;;;16.25;8.25;;;;;;;7.56;100.00;102318.72;10168294;28;20051;-62
2022/05/01 03:40:52;;;;;;;17.77;8.60;;;;;;;7.52;100.00;102318.41;10196003;28;20132;-64
2022/05/01 03:45:53;;;;;;;13.90;7.63;;;;;;;7.58;100.00;102322.81;10183575;28;20050;-64
2022/05/01 03:50:54;;;;;;;16.05;7.95;;;;;;;7.57;100.00;102314.94;10156003;28;20057;-64
2022/05/01 03:55:53;;;;;;;17.05;6.75;;;;;;;7.65;100.00;102319.88;10169815;28;20046;-64
2022/05/01 04:00:50;;;;;;;17.35;8.23;;;;;;;7.60;100.00;102314.41;10184239;28;20092;-63
2022/05/01 04:05:48;;;;;;;13.93;7.15;;;;;;;7.52;100.00;102309.41;10168555;28;20057;-64
2022/05/01 04:10:45;;;;;;;22.65;7.18;;;;;;;7.67;100.00;102315.00;10155518;28;20158;-61
2022/05/01 04:15:42;;;;;;;16.75;7.32;;;;;;;7.56;100.00;102326.88;10167631;28;20147;-62
2022/05/01 04:20:39;;;;;;;12.57;7.03;;;;;;;7.45;100.00;102322.41;10159729;28;20069;-62
2022/05/01 04:25:36;;;;;;;18.67;6.90;;;;;;;7.39;100.00;102321.56;10170115;28;20072;-64
2022/05/01 04:30:34;;;;;;;17.52;8.00;;;;;;;7.36;100.00;102328.34;10167719;28;20133;-63
2022/05/01 04:35:33;;;;;;;15.70;8.48;;;;;;;7.45;100.00;102325.97;10165163;28;20133;-64
2022/05/01 04:40:32;;;;;;;14.57;7.25;;;;;;;7.32;100.00;102329.91;10155213;28;20764;-64
2022/05/01 04:45:30;;;;;;;12.80;7.60;;;;;;;7.27;100.00;102329.88;10165132;28;20141;-62
2022/05/01 04:50:28;;;;;;;14.88;7.22;;;;;;;7.19;100.00;102335.75;10165053;28;20054;-62
2022/05/01 04:55:24;;;;;;;15.38;7.95;;;;;;;7.19;100.00;102341.19;10165279;28;20086;-62
2022/05/01 05:00:21;;;;;;;13.23;6.43;;;;;;;7.21;100.00;102339.03;10193171;28;20108;-64
2022/05/01 05:05:19;;;;;;;12.98;7.00;;;;;;;7.21;100.00;102344.47;10190352;28;20077;-62
2022/05/01 05:10:16;;;;;;;19.17;7.10;;;;;;;7.21;100.00;102344.47;10154749;28;20047;-62
2022/05/01 05:15:15;;;;;;;13.27;7.18;;;;;;;7.28;100.00;102347.81;10169729;28;20050;-62
2022/05/01 05:20:13;;;;;;;12.05;7.45;;;;;;;7.22;100.00;102350.75;10154413;28;20134;-63
2022/05/01 05:25:11;;;;;;;17.25;8.43;;;;;;;7.13;100.00;102353.09;10164612;28;20137;-65
2022/05/01 05:30:08;;;;;;;16.63;7.13;;;;;;;7.13;100.00;102358.56;10186566;28;20096;-64
2022/05/01 05:35:06;;;;;;;17.38;6.28;;;;;;;7.21;100.00;102349.91;10163531;28;20129;-65
2022/05/01 05:40:03;;;;;;;11.93;6.18;;;;;;;7.26;100.00;102352.69;10174189;28;20054;-65
2022/05/01 05:45:01;;;;;;;20.73;7.20;;;;;;;7.37;100.00;102350.91;10163442;28;20093;-62
2022/05/01 05:49:57;;;;;;;16.90;7.18;;;;;;;7.29;100.00;102352.19;10168711;28;20105;-62
2022/05/01 05:54:54;;;;;;;16.75;6.47;;;;;;;7.31;100.00;102349.22;10161552;28;20043;-63
2022/05/01 05:59:50;;;;;;;10.05;5.20;;;;;;;7.49;100.00;102356.19;10164959;28;20129;-63
2022/05/01 06:04:47;;;;;;;14.00;5.63;;;;;;;7.53;100.00;102352.72;10161685;28;20089;-63
2022/05/01 06:09:43;;;;;;;10.52;4.80;;;;;;;7.67;100.00;102357.75;10153929;28;20548;-62
2022/05/01 06:14:40;;;;;;;12.13;5.03;;;;;;;7.77;100.00;102358.69;10160775;28;20064;-62
2022/05/01 06:19:37;;;;;;;11.32;5.32;;;;;;;7.89;100.00;102360.38;10157054;28;20088;-63
2022/05/01 06:24:34;;;;;;;11.95;5.07;;;;;;;7.98;100.00;102361.53;10162263;28;20042;-61
2022/05/01 06:29:30;;;;;;;10.98;5.47;;;;;;;8.02;100.00;102359.94;10181734;28;20530;-62
2022/05/01 06:34:28;;;;;;;11.98;4.28;;;;;;;8.13;100.00;102360.88;10188148;28;20168;-62
2022/05/01 06:39:25;;;;;;;8.10;4.10;;;;;;;8.14;100.00;102367.94;10181473;28;20057;-62
2022/05/01 06:44:21;;;;;;;9.63;4.43;;;;;;;8.30;100.00;102363.44;10162068;28;20049;-63
2022/05/01 06:49:18;;;;;;;10.43;3.88;;;;;;;8.44;100.00;102356.47;10178481;28;20125;-62
2022/05/01 06:54:14;;;;;;;9.85;5.35;;;;;;;8.53;100.00;102360.34;10177595;28;20056;-62
2022/05/01 06:59:11;;;;;;;8.23;2.05;;;;;;;8.53;100.00;102359.50;10179699;28;20700;-62
2022/05/01 07:04:08;;;;;;;5.22;1.83;;;;;;;8.62;100.00;102347.84;10175870;28;20057;-62
2022/05/01 07:09:04;;;;;;;8.15;2.28;;;;;;;8.69;100.00;102352.25;10174963;28;20061;-62
2022/05/01 07:14:01;;;;;;;5.35;1.70;;;;;;;8.74;100.00;102355.81;10178415;28;20096;-62
2022/05/01 07:18:58;;;;;;;7.22;1.92;;;;;;;8.89;100.00;102357.81;10169314;28;20809;-62
2022/05/01 07:23:56;;;;;;;9.88;2.80;;;;;;;8.92;100.00;102362.72;10157730;28;20143;-64
2022/05/01 07:28:52;;;;;;;8.80;3.00;;;;;;;8.91;100.00;102366.53;10166669;28;20169;-64
2022/05/01 07:33:49;;;;;;;7.22;2.45;;;;;;;9.08;100.00;102365.50;10153030;28;20068;-64
2022/05/01 07:38:48;;;;;;;10.95;3.53;;;;;;;9.26;100.00;102373.22;10173167;28;20747;-64
2022/05/01 07:43:46;;;;;;;11.63;2.90;;;;;;;9.35;100.00;102371.59;10174951;28;20131;-64
2022/05/01 07:48:42;;;;;;;7.03;2.97;;;;;;;9.40;100.00;102376.22;10170781;28;20140;-64
2022/05/01 07:53:39;;;;;;;4.75;2.35;;;;;;;9.50;100.00;102370.00;10177272;28;20084;-64
2022/05/01 07:58:36;;;;;;;6.65;2.25;;;;;;;9.51;100.00;102363.44;10176001;28;20046;-64
2022/05/01 08:08:49;;;;;;;6.63;2.42;;;;;;;9.97;100.00;102360.75;10177669;28;20049;-64
2022/05/01 08:13:45;;;;;;;6.68;2.35;;;;;;;10.19;100.00;102358.56;10172773;28;20120;-64
2022/05/01 08:23:57;;;;;;;8.55;3.20;;;;;;;10.35;100.00;102366.75;10186217;28;20077;-64
2022/05/01 08:28:54;;;;;;;9.20;4.30;;;;;;;10.48;100.00;102358.78;10185987;28;20046;-64
2022/05/01 08:33:51;;;;;;;11.43;4.82;;;;;;;10.55;100.00;102360.44;10167350;28;20049;-64
2022/05/01 08:38:48;;;;;;;10.75;2.95;;;;;;;10.71;100.00;102354.63;10183381;28;20084;-64
2022/05/01 08:43:44;;;;;;;8.43;4.13;;;;;;;10.90;100.00;102363.03;10181581;28;20104;-64
2022/05/01 08:48:55;;;;;;;8.88;3.42;;;;;;;11.21;100.00;102356.59;10178407;28;20575;-65
2022/05/01 08:53:54;;;;;;;7.40;3.95;;;;;;;11.22;100.00;102348.13;10173783;28;20053;-64
2022/05/01 08:58:52;;;;;;;10.15;3.47;;;;;;;11.33;100.00;102348.88;10176772;28;20081;-64
2022/05/01 09:03:48;;;;;;;6.70;2.22;;;;;;;11.45;100.00;102338.38;10175008;28;20045;-64
2022/05/01 09:08:45;;;;;;;12.30;4.57;;;;;;;11.65;100.00;102347.56;10173149;28;20072;-64
2022/05/01 09:13:42;;;;;;;5.28;1.58;;;;;;;11.81;100.00;102349.06;10183068;28;20069;-65
2022/05/01 09:18:43;;;;;;;5.97;1.70;;;;;;;11.91;97.50;102343.56;10185171;28;20046;-65
2022/05/01 09:23:44;;;;;;;6.68;1.77;;;;;;;11.94;90.25;102347.66;10183834;28;20474;-67
2022/05/01 09:28:51;;;;;;;4.40;1.33;;;;;;;12.12;89.48;102337.91;10184809;28;20669;-67
2022/05/01 09:33:48;;;;;;;3.15;1.20;;;;;;;12.35;90.46;102337.13;10182488;28;20081;-67
2022/05/01 09:39:01;;;;;;;3.53;0.95;;;;;;;12.37;75.60;102340.38;10183258;28;20045;-66
2022/05/01 09:44:12;;;;;;;4.63;1.63;;;;;;;12.55;79.56;102338.00;10182625;28;20131;-66
2022/05/01 09:49:11;;;;;;;7.13;1.73;;;;;;;13.07;71.15;102330.78;10177892;28;20501;-66
2022/05/01 09:54:08;;;;;;;3.95;1.42;;;;;;;13.51;58.28;102329.63;10161973;28;20049;-65
2022/05/01 09:59:04;;;;;;;2.85;1.10;;;;;;;13.61;51.57;102318.47;10165275;28;20520;-65
2022/05/01 10:04:04;;;;;;;4.05;1.00;;;;;;;13.40;53.58;102317.16;10169641;28;20045;-65
2022/05/01 10:09:01;;;;;;;1.80;0.60;;;;;;;15.05;56.95;102313.00;10173428;28;20133;-65
2022/05/01 10:13:59;;;;;;;1.67;0.75;;;;;;;16.27;42.61;102328.53;10188369;28;20056;-66
2022/05/01 10:18:56;;;;;;;2.30;0.63;;;;;;;16.11;41.94;102317.09;10170459;28;20144;-65
2022/05/01 10:24:13;;;;;;;2.58;0.70;;;;;;;15.51;42.26;102310.00;10172877;28;20291;-66
2022/05/01 10:29:22;;;;;;;2.85;0.52;;;;;;;15.18;39.14;102309.41;10174085;28;20692;-66
2022/05/01 10:34:18;;;;;;;2.88;0.75;;;;;;;15.02;38.66;102319.16;10167909;28;20048;-66
2022/05/01 10:39:20;;;;;;;1.52;0.40;;;;;;;14.79;40.31;102313.56;10167904;28;20089;-66
2022/05/01 10:44:35;;;;;;;3.08;1.13;;;;;;;14.30;42.36;102312.31;10164288;28;20041;-66
2022/05/01 10:49:34;;;;;;;2.28;0.55;;;;;;;14.17;43.95;102302.09;10173475;28;20038;-66
2022/05/01 10:54:33;;;;;;;6.45;1.55;;;;;;;13.97;46.84;102308.78;10178064;28;20469;-66
2022/05/01 10:59:29;;;;;;;2.97;0.73;;;;;;;13.90;47.80;102303.66;10161132;28;20069;-66
2022/05/01 11:04:36;;;;;;;2.97;0.85;;;;;;;13.92;48.25;102301.44;10170047;28;20042;-64
2022/05/01 11:09:35;;;;;;;3.65;0.90;;;;;;;13.85;46.79;102303.75;10180445;28;20045;-63
2022/05/01 11:14:39;;;;;;;3.83;0.80;;;;;;;13.76;48.86;102302.81;10176370;28;20046;-63
2022/05/01 11:19:50;;;;;;;4.65;1.00;;;;;;;13.75;52.10;102301.19;10162770;28;20455;-63
2022/05/01 11:24:47;;;;;;;2.70;0.88;;;;;;;13.80;50.98;102287.38;10183481;28;20141;-64
2022/05/01 11:30:08;;;;;;;2.83;0.82;;;;;;;13.89;48.38;102291.88;10184278;28;20149;-64
2022/05/01 11:35:05;;;;;;;4.35;0.75;;;;;;;13.87;48.29;102287.78;10179293;28;20125;-63
2022/05/01 11:40:06;;;;;;;2.78;1.00;;;;;;;13.98;46.67;102293.94;10162818;28;20497;-64
2022/05/01 11:45:08;;;;;;;3.95;0.98;;;;;;;13.93;46.13;102286.59;10158570;28;20069;-63
2022/05/01 11:50:05;;;;;;;5.38;0.80;;;;;;;14.05;48.17;102295.16;10172105;28;20089;-64
2022/05/01 11:55:08;;;;;;;2.33;0.93;;;;;;;14.42;48.52;102282.34;10179728;28;20140;-65
2022/05/01 12:05:22;;;;;;;3.20;1.00;;;;;;;14.71;45.45;102281.25;10186021;28;20045;-64
2022/05/01 12:10:22;;;;;;;4.88;1.05;;;;;;;14.44;44.26;102274.63;10185310;28;20088;-65
2022/05/01 12:15:19;;;;;;;5.03;1.13;;;;;;;14.57;44.41;102272.19;10185549;28;20133;-64
2022/05/01 12:20:15;;;;;;;3.58;1.25;;;;;;;14.43;44.00;102267.47;10184347;28;20070;-65
2022/05/01 12:25:13;;;;;;;2.85;1.05;;;;;;;14.87;42.93;102276.22;10185318;28;20467;-64
2022/05/01 12:30:10;;;;;;;9.45;1.95;;;;;;;14.86;43.39;102272.66;10182786;28;20042;-65
2022/05/01 12:35:08;;;;;;;3.53;0.80;;;;;;;15.13;42.44;102262.69;10180277;28;20112;-65
2022/05/01 12:40:10;;;;;;;2.08;0.52;;;;;;;15.19;43.02;102260.63;10183607;28;20080;-65
2022/05/01 12:45:21;;;;;;;2.80;0.93;;;;;;;14.94;41.95;102260.94;10177285;28;20058;-65
2022/05/01 12:50:21;;;;;;;5.63;0.80;;;;;;;14.72;42.40;102260.88;10181074;28;20050;-65
2022/05/01 12:55:20;;;;;;;5.78;1.20;;;;;;;14.73;45.37;102254.22;10177584;28;20100;-65
2022/05/01 13:00:43;;;;;;;3.60;0.70;;;;;;;14.89;45.10;102246.44;10172254;28;20058;-65
2022/05/01 13:05:40;;;;;;;3.83;1.08;;;;;;;14.81;46.03;102250.75;10169995;28;20054;-65
2022/05/01 13:10:37;;;;;;;3.15;1.02;;;;;;;14.64;42.46;102256.06;10172683;28;20113;-65
2022/05/01 13:15:38;;;;;;;5.60;0.88;;;;;;;14.43;42.66;102245.44;10177209;28;20088;-65
2022/05/01 13:20:34;;;;;;;1.90;0.80;;;;;;;14.45;43.33;102250.66;10177010;28;20046;-65
2022/05/01 13:25:31;;;;;;;5.05;0.90;;;;;;;14.34;43.13;102246.47;10175681;28;20455;-66
2022/05/01 13:30:27;;;;;;;2.88;0.70;;;;;;;14.30;41.15;102238.84;10182570;28;20104;-63
2022/05/01 13:35:24;;;;;;;4.20;0.70;;;;;;;14.40;44.87;102235.06;10168359;28;20076;-65
2022/05/01 13:45:36;;;;;;;4.60;1.05;;;;;;;14.26;44.47;102218.56;10176275;28;20131;-64
2022/05/01 13:50:32;;;;;;;2.92;0.90;;;;;;;14.18;43.77;102212.94;10177137;28;20045;-66
2022/05/01 13:55:29;;;;;;;6.20;1.88;;;;;;;14.15;45.18;102216.31;10178017;28;20126;-66
2022/05/01 14:00:26;;;;;;;3.28;0.98;;;;;;;14.12;45.04;102212.25;10172253;28;20069;-66
2022/05/01 14:05:23;;;;;;;3.50;0.90;;;;;;;14.06;44.68;102203.31;10173578;28;20152;-65
2022/05/01 14:10:19;;;;;;;4.88;1.25;;;;;;;13.97;45.35;102218.88;10179510;28;20046;-66
2022/05/01 14:15:16;;;;;;;5.53;2.20;;;;;;;14.01;46.18;102206.13;10169664;28;20108;-66
2022/05/01 14:20:12;;;;;;;6.97;2.83;;;;;;;13.89;46.18;102214.06;10159531;28;20084;-66
2022/05/01 14:25:12;;;;;;;4.18;1.48;;;;;;;14.08;46.42;102201.03;10171175;28;20049;-66
2022/05/01 14:30:09;;;;;;;7.22;1.77;;;;;;;14.05;45.37;102201.66;10166421;28;20050;-66
2022/05/01 14:35:11;;;;;;;5.35;2.30;;;;;;;13.95;46.53;102193.63;10157909;28;20046;-66
2022/05/01 14:40:10;;;;;;;3.70;1.48;;;;;;;14.00;48.51;102192.69;10164783;28;20141;-64
2022/05/01 14:45:07;;;;;;;5.35;1.75;;;;;;;13.87;52.62;102189.63;10171799;28;20089;-66
2022/05/01 14:50:04;;;;;;;5.18;1.70;;;;;;;13.67;55.14;102190.84;10170631;28;20050;-65
2022/05/01 14:55:06;;;;;;;7.97;1.77;;;;;;;13.59;57.53;102194.25;10156733;28;20108;-64
2022/05/01 15:10:43;;;;;;;3.95;1.70;;;;;;;13.63;59.62;102192.56;10177694;28;20116;-65
2022/05/01 15:16:13;;;;;;;8.88;2.08;;;;;;;13.67;66.93;102190.84;10172811;28;20061;-65
2022/05/01 15:21:27;;;;;;;5.70;2.40;;;;;;;13.50;70.66;102201.56;10175875;28;20037;-65
2022/05/01 15:26:26;;;;;;;4.65;2.03;;;;;;;13.35;65.58;102199.09;10169904;28;20108;-65
2022/05/01 15:31:23;;;;;;;8.32;2.45;;;;;;;13.25;75.79;102200.88;10178119;28;20077;-65
2022/05/01 15:36:29;;;;;;;9.85;3.25;;;;;;;13.29;77.66;102194.81;10177112;28;20053;-65
2022/05/01 15:41:28;;;;;;;7.53;3.05;;;;;;;13.26;78.59;102197.00;10176069;28;20133;-64
2022/05/01 15:46:29;;;;;;;7.65;2.72;;;;;;;13.29;77.48;102194.81;10174930;28;20053;-64
2022/05/01 15:56:42;;;;;;;6.80;2.75;;;;;;;13.24;73.25;102188.25;10165858;28;20563;-65
2022/05/01 16:01:40;;;;;;;7.95;2.90;;;;;;;13.20;80.14;102187.19;10170027;28;20114;-65
2022/05/01 16:06:40;;;;;;;8.18;4.07;;;;;;;13.52;75.88;102185.59;10172700;28;20054;-65
2022/05/01 16:12:01;;;;;;;7.57;3.80;;;;;;;13.66;76.41;102183.69;10174219;28;20104;-65
2022/05/01 16:17:15;;;;;;;10.45;3.42;;;;;;;14.66;72.01;102177.56;10174554;28;20054;-65
2022/05/01 16:22:16;;;;;;;7.57;2.65;;;;;;;15.70;64.59;102169.22;10180812;28;20042;-65
2022/05/01 16:27:44;;;;;;;9.07;2.08;;;;;;;16.87;55.29;102161.38;10183398;28;20061;-65
2022/05/01 16:32:53;;;;;;;5.88;2.40;;;;;;;17.69;50.37;102172.44;10185930;28;20041;-65
2022/05/01 16:37:51;;;;;;;5.93;1.90;;;;;;;17.48;49.47;102164.06;10160611;28;20418;-65
2022/05/01 16:42:51;;;;;;;6.20;2.53;;;;;;;16.46;51.49;102159.06;10175461;28;20145;-65
2022/05/01 16:47:50;;;;;;;5.55;2.60;;;;;;;15.78;54.72;102157.44;10188660;28;20066;-65
2022/05/01 16:52:48;;;;;;;5.63;2.47;;;;;;;14.84;60.99;102162.00;10174247;28;20050;-65
2022/05/01 16:57:48;;;;;;;7.80;2.10;;;;;;;14.77;63.04;102150.63;10176078;28;20050;-64
2022/05/01 17:03:07;;;;;;;5.00;2.22;;;;;;;14.68;67.82;102152.47;10187255;28;20562;-64
2022/05/01 17:08:15;;;;;;;6.07;2.20;;;;;;;14.42;68.73;102150.28;10182814;28;20520;-65
2022/05/01 17:13:44;;;;;;;7.15;2.45;;;;;;;14.06;69.98;102153.78;10179649;28;20070;-64
2022/05/01 17:18:56;;;;;;;5.63;1.70;;;;;;;13.99;70.72;102152.56;10172413;28;20046;-64
2022/05/01 17:24:05;;;;;;;6.63;2.08;;;;;;;13.81;72.14;102162.56;10180973;28;20108;-66
2022/05/01 17:29:11;;;;;;;5.75;1.80;;;;;;;13.49;76.04;102161.47;10172609;28;20645;-65
2022/05/01 17:34:09;;;;;;;3.42;1.38;;;;;;;13.63;76.48;102165.06;10175735;28;20042;-65
2022/05/01 17:39:05;;;;;;;5.40;1.73;;;;;;;13.56;77.62;102169.34;10181167;28;20141;-65
2022/05/01 17:44:02;;;;;;;3.65;1.40;;;;;;;13.24;81.63;102171.75;10182047;28;20830;-65
2022/05/01 17:49:01;;;;;;;5.20;1.83;;;;;;;13.15;82.75;102168.06;10177647;28;20096;-65
2022/05/01 17:53:58;;;;;;;5.60;2.13;;;;;;;13.14;86.41;102163.69;10181196;28;20582;-65
2022/05/01 17:58:55;;;;;;;8.10;2.00;;;;;;;13.09;85.75;102174.78;10174912;28;20115;-64
2022/05/01 18:15:02;;;;;;;3.97;1.60;;;;;;;12.93;88.11;102176.13;10171121;28;20054;-64
2022/05/01 18:20:13;;;;;;;3.78;1.35;;;;;;;12.97;89.32;102182.63;10176508;28;20049;-65
2022/05/01 18:25:15;;;;;;;4.00;1.52;;;;;;;12.80;90.59;102183.16;10176526;28;20054;-65
2022/05/01 18:30:15;;;;;;;8.00;1.70;;;;;;;12.84;90.37;102179.53;10179812;28;20108;-65
2022/05/01 18:35:17;;;;;;;8.55;1.55;;;;;;;12.85;93.14;102180.34;10174194;28;20582;-65
2022/05/01 18:40:16;;;;;;;7.57;1.67;;;;;;;12.87;95.31;102188.28;10180387;28;20079;-65
2022/05/01 18:45:15;;;;;;;4.38;1.65;;;;;;;12.84;97.86;102185.03;10167236;28;20069;-65
2022/05/01 18:50:14;;;;;;;4.60;1.58;;;;;;;12.84;94.90;102192.44;10179140;28;20054;-65
2022/05/01 18:55:15;;;;;;;4.85;1.65;;;;;;;12.78;95.19;102202.66;10184021;28;20042;-65
2022/05/01 19:00:12;;;;;;;4.65;1.30;;;;;;;12.78;99.35;102199.94;10174665;28;20511;-65
2022/05/01 19:05:09;;;;;;;3.50;1.23;;;;;;;12.65;97.98;102206.19;10175977;28;20160;-65
2022/05/01 19:10:34;;;;;;;6.45;1.60;;;;;;;12.59;98.34;102204.59;10167255;28;20050;-65
2022/05/01 19:16:25;;;;;;;6.10;1.60;;;;;;;12.55;99.54;102209.03;10178419;28;20523;-65
2022/05/01 19:22:00;;;;;;;4.95;1.20;;;;;;;12.53;97.75;102211.25;10136474;28;20137;-64
2022/05/01 19:27:15;;;;;;;4.38;1.00;;;;;;;12.42;99.92;102216.88;10168549;28;20153;-65
2022/05/01 19:32:55;;;;;;;5.00;1.23;;;;;;;12.40;100.00;102221.84;10155849;28;20217;-65
2022/05/01 19:38:12;;;;;;;5.53;1.27;;;;;;;12.40;100.00;102213.63;10146008;28;20177;-65
2022/05/01 19:43:34;;;;;;;4.80;1.88;;;;;;;12.41;100.00;102223.47;10182197;28;20053;-65
2022/05/01 19:54:13;;;;;;;6.90;1.48;;;;;;;12.38;100.00;102221.31;10166528;28;20154;-67
2022/05/01 19:59:12;;;;;;;3.35;1.20;;;;;;;12.30;100.00;102219.25;10172109;28;20611;-67
2022/05/01 20:04:10;;;;;;;4.00;1.30;;;;;;;12.30;100.00;102213.75;10178726;28;20150;-65
2022/05/01 20:09:08;;;;;;;4.80;1.33;;;;;;;12.23;100.00;102218.78;10180517;28;20141;-65
2022/05/01 20:14:06;;;;;;;5.53;1.65;;;;;;;12.15;100.00;102216.66;10180433;28;20175;-65
2022/05/01 20:19:03;;;;;;;6.20;1.50;;;;;;;12.05;100.00;102219.53;10182665;28;20084;-66
2022/05/01 20:24:22;;;;;;;9.77;1.48;;;;;;;12.13;100.00;102216.13;10186473;28;20077;-66
2022/05/01 20:29:26;;;;;;;5.55;1.48;;;;;;;12.11;100.00;102218.34;10187436;28;20073;-66
2022/05/01 20:34:48;;;;;;;5.43;1.55;;;;;;;12.15;100.00;102227.63;10184939;28;20145;-66
2022/05/01 20:39:57;;;;;;;5.55;1.55;;;;;;;12.12;100.00;102222.75;10183599;28;20074;-66
2022/05/01 20:45:02;;;;;;;4.43;1.23;;;;;;;12.08;100.00;102224.44;10184464;28;20069;-66
2022/05/01 20:50:08;;;;;;;5.60;1.60;;;;;;;12.05;100.00;102216.78;10182275;28;20531;-67
2022/05/01 20:55:11;;;;;;;6.63;1.30;;;;;;;11.99;100.00;102214.09;10157177;28;20164;-67
2022/05/01 21:00:08;;;;;;;4.68;1.60;;;;;;;11.94;100.00;102211.41;10164828;28;20488;-67
2022/05/01 21:05:06;;;;;;;4.30;1.65;;;;;;;11.89;100.00;102211.47;10158077;28;20218;-66
2022/05/01 21:10:06;;;;;;;5.10;1.40;;;;;;;11.85;100.00;102218.59;10160620;28;20464;-65
2022/05/01 21:15:04;;;;;;;9.43;1.75;;;;;;;11.79;100.00;102203.34;10157002;28;20045;-65
2022/05/01 21:20:01;;;;;;;5.72;1.35;;;;;;;11.76;100.00;102212.13;10189942;28;20073;-67
2022/05/01 21:24:59;;;;;;;5.05;2.03;;;;;;;11.71;100.00;102209.44;10176976;28;20045;-67
2022/05/01 21:35:11;;;;;;;5.00;1.40;;;;;;;11.54;100.00;102210.69;10185281;28;20129;-66
2022/05/01 21:40:07;;;;;;;5.38;1.55;;;;;;;11.50;100.00;102201.41;10172562;28;20523;-66
2022/05/01 21:45:04;;;;;;;6.20;2.00;;;;;;;11.45;100.00;102204.19;10187278;28;20100;-66
2022/05/01 21:50:01;;;;;;;4.32;1.45;;;;;;;11.37;100.00;102200.16;10153802;28;20089;-66
2022/05/01 21:54:57;;;;;;;4.07;1.60;;;;;;;11.30;100.00;102207.88;10153594;28;20050;-66
2022/05/01 21:59:55;;;;;;;3.90;1.50;;;;;;;11.23;100.00;102210.13;10152516;28;20108;-66
2022/05/01 22:04:53;;;;;;;4.00;1.58;;;;;;;11.21;100.00;102206.03;10153786;28;20148;-66
2022/05/01 22:09:50;;;;;;;3.97;1.52;;;;;;;11.17;100.00;102203.06;10184303;28;20054;-66
2022/05/01 22:14:47;;;;;;;5.40;1.70;;;;;;;11.15;100.00;102197.84;10189889;28;20038;-64
2022/05/01 22:19:44;;;;;;;5.15;1.80;;;;;;;11.10;100.00;102195.16;10152862;28;20066;-64
2022/05/01 22:24:42;;;;;;;8.68;1.90;;;;;;;11.10;100.00;102189.69;10167518;28;20512;-64
2022/05/01 22:29:40;;;;;;;5.05;1.80;;;;;;;11.07;100.00;102187.53;10183629;28;20052;-64
2022/05/01 22:34:36;;;;;;;4.18;1.80;;;;;;;11.03;100.00;102180.97;10178732;28;20058;-66
2022/05/01 22:39:33;;;;;;;6.28;2.08;;;;;;;10.94;100.00;102178.03;10191010;28;20050;-65
2022/05/01 22:44:29;;;;;;;4.60;1.42;;;;;;;10.91;100.00;102166.84;10168916;28;20089;-65
2022/05/01 22:49:26;;;;;;;5.85;1.50;;;;;;;10.92;100.00;102163.00;10188914;28;20096;-64
2022/05/01 22:54:22;;;;;;;7.13;2.53;;;;;;;10.88;100.00;102167.41;10149873;28;20054;-64
2022/05/01 22:59:19;;;;;;;18.70;8.43;;;;;;;10.84;100.00;102171.81;10168162;28;20105;-65
2022/05/01 23:04:15;;;;;;;38.00;15.45;;;;;;;10.83;100.00;102168.25;10189792;28;20739;-65
2022/05/01 23:09:12;;;;;;;43.05;19.77;;;;;;;10.81;100.00;102172.38;10173829;28;20046;-64
2022/05/01 23:14:09;;;;;;;45.58;20.23;;;;;;;10.83;100.00;102175.66;10192563;28;20046;-64
2022/05/01 23:19:05;;;;;;;54.40;22.90;;;;;;;10.80;100.00;102177.03;10195482;28;20149;-64
2022/05/01 23:24:02;;;;;;;40.28;17.40;;;;;;;10.82;100.00;102166.63;10160703;28;20467;-64
2022/05/01 23:28:58;;;;;;;42.50;17.50;;;;;;;10.78;100.00;102162.00;10184919;28;20819;-64
2022/05/01 23:33:55;;;;;;;27.40;11.93;;;;;;;10.72;100.00;102164.78;10157059;28;20460;-65
2022/05/01 23:38:51;;;;;;;18.83;8.52;;;;;;;10.71;100.00;102157.66;10175428;28;20571;-64
2022/05/01 23:43:48;;;;;;;18.58;7.38;;;;;;;10.68;100.00;102152.75;10156671;28;20078;-64
2022/05/01 23:48:44;;;;;;;16.35;6.22;;;;;;;10.65;100.00;102147.88;10173368;28;20047;-63
2022/05/01 23:53:41;;;;;;;18.30;7.60;;;;;;;10.59;100.00;102145.44;10157197;28;20078;-64
2022/05/01 23:58:37;;;;;;;23.23;9.98;;;;;;;10.48;100.00;102137.28;10190788;28;20045;-64
